sensor_id;sensor_type;location;lat;lon;timestamp;temperature;humidity
44271;DHT22;29963;44.594;11.368;2022-12-15T00:00:54;5.50;99.90
44271;DHT22;29963;44.594;11.368;2022-12-15T00:03:38;5.40;99.90
44271;DHT22;29963;44.594;11.368;2022-12-15T00:06:22;5.40;99.90
44271;DHT22;29963;44.594;11.368;2022-12-15T00:09:06;5.40;99.90
44271;DHT22;29963;44.594;11.368;2022-12-15T00:11:50;5.40;99.90
44271;DHT22;29963;44.594;11.368;2022-12-15T00:14:34;5.40;99.90
44271;DHT22;29963;44.594;11.368;2022-12-15T00:17:18;5.40;99.90
44271;DHT22;29963;44.594;11.368;2022-12-15T00:20:03;5.40;99.90
44271;DHT22;29963;44.594;11.368;2022-12-15T00:22:47;5.40;99.90
44271;DHT22;29963;44.594;11.368;2022-12-15T00:25:31;5.50;99.90
44271;DHT22;29963;44.594;11.368;2022-12-15T00:28:15;5.50;99.90
44271;DHT22;29963;44.594;11.368;2022-12-15T00:30:59;5.50;99.90
44271;DHT22;29963;44.594;11.368;2022-12-15T00:33:43;5.40;99.90
44271;DHT22;29963;44.594;11.368;2022-12-15T00:36:28;5.40;99.90
44271;DHT22;29963;44.594;11.368;2022-12-15T00:39:12;5.40;99.90
44271;DHT22;29963;44.594;11.368;2022-12-15T00:41:37;5.40;99.90
44271;DHT22;29963;44.594;11.368;2022-12-15T00:44:03;5.40;99.90
44271;DHT22;29963;44.594;11.368;2022-12-15T00:46:29;5.40;99.90
44271;DHT22;29963;44.594;11.368;2022-12-15T00:49:13;5.40;99.90
44271;DHT22;29963;44.594;11.368;2022-12-15T00:51:57;5.40;99.90
44271;DHT22;29963;44.594;11.368;2022-12-15T00:54:41;5.50;99.90
44271;DHT22;29963;44.594;11.368;2022-12-15T00:57:25;5.50;99.90
44271;DHT22;29963;44.594;11.368;2022-12-15T01:00:10;5.50;99.90
44271;DHT22;29963;44.594;11.368;2022-12-15T01:02:54;5.50;99.90
44271;DHT22;29963;44.594;11.368;2022-12-15T01:05:39;5.50;99.90
44271;DHT22;29963;44.594;11.368;2022-12-15T01:08:26;5.50;99.90
44271;DHT22;29963;44.594;11.368;2022-12-15T01:11:10;5.50;99.90
44271;DHT22;29963;44.594;11.368;2022-12-15T01:13:54;5.50;99.90
44271;DHT22;29963;44.594;11.368;2022-12-15T01:16:38;5.50;99.90
44271;DHT22;29963;44.594;11.368;2022-12-15T01:19:26;5.50;99.90
44271;DHT22;29963;44.594;11.368;2022-12-15T01:22:10;5.50;99.90
44271;DHT22;29963;44.594;11.368;2022-12-15T01:24:35;5.50;99.90
44271;DHT22;29963;44.594;11.368;2022-12-15T01:27:01;5.60;99.90
44271;DHT22;29963;44.594;11.368;2022-12-15T01:29:27;5.60;99.90
44271;DHT22;29963;44.594;11.368;2022-12-15T01:31:52;5.60;99.90
44271;DHT22;29963;44.594;11.368;2022-12-15T01:34:21;5.50;99.90
44271;DHT22;29963;44.594;11.368;2022-12-15T01:36:47;5.50;99.90
44271;DHT22;29963;44.594;11.368;2022-12-15T01:39:12;5.50;99.90
44271;DHT22;29963;44.594;11.368;2022-12-15T01:41:38;5.50;99.90
44271;DHT22;29963;44.594;11.368;2022-12-15T01:44:18;5.50;99.90
44271;DHT22;29963;44.594;11.368;2022-12-15T01:46:46;5.60;99.90
44271;DHT22;29963;44.594;11.368;2022-12-15T01:49:16;5.60;99.90
44271;DHT22;29963;44.594;11.368;2022-12-15T01:51:50;5.70;99.90
44271;DHT22;29963;44.594;11.368;2022-12-15T01:54:33;5.60;99.90
44271;DHT22;29963;44.594;11.368;2022-12-15T01:57:12;5.60;99.90
44271;DHT22;29963;44.594;11.368;2022-12-15T01:59:43;5.60;99.90
44271;DHT22;29963;44.594;11.368;2022-12-15T02:02:14;5.60;99.90
44271;DHT22;29963;44.594;11.368;2022-12-15T02:04:41;5.60;99.90
44271;DHT22;29963;44.594;11.368;2022-12-15T02:07:12;5.60;99.90
44271;DHT22;29963;44.594;11.368;2022-12-15T02:09:39;5.70;99.90
44271;DHT22;29963;44.594;11.368;2022-12-15T02:29:46;5.50;99.90
44271;DHT22;29963;44.594;11.368;2022-12-15T02:32:43;5.60;99.90
44271;DHT22;29963;44.594;11.368;2022-12-15T02:37:58;5.60;99.90
44271;DHT22;29963;44.594;11.368;2022-12-15T02:40:26;5.60;99.90
44271;DHT22;29963;44.594;11.368;2022-12-15T02:42:54;5.60;99.90
44271;DHT22;29963;44.594;11.368;2022-12-15T02:48:48;5.60;99.90
44271;DHT22;29963;44.594;11.368;2022-12-15T02:54:47;5.60;99.90
44271;DHT22;29963;44.594;11.368;2022-12-15T03:00:07;5.60;99.90
44271;DHT22;29963;44.594;11.368;2022-12-15T03:02:38;5.50;99.90
44271;DHT22;29963;44.594;11.368;2022-12-15T03:05:06;5.50;99.90
44271;DHT22;29963;44.594;11.368;2022-12-15T03:07:32;5.40;99.90
44271;DHT22;29963;44.594;11.368;2022-12-15T03:10:00;5.50;99.90
44271;DHT22;29963;44.594;11.368;2022-12-15T03:12:26;5.50;99.90
44271;DHT22;29963;44.594;11.368;2022-12-15T03:14:52;5.50;99.90
44271;DHT22;29963;44.594;11.368;2022-12-15T03:17:18;5.50;99.90
44271;DHT22;29963;44.594;11.368;2022-12-15T03:19:44;5.50;99.90
44271;DHT22;29963;44.594;11.368;2022-12-15T03:22:10;5.50;99.90
44271;DHT22;29963;44.594;11.368;2022-12-15T03:24:35;5.50;99.90
44271;DHT22;29963;44.594;11.368;2022-12-15T03:27:02;5.40;99.90
44271;DHT22;29963;44.594;11.368;2022-12-15T03:29:27;5.40;99.90
44271;DHT22;29963;44.594;11.368;2022-12-15T03:31:53;5.50;99.90
44271;DHT22;29963;44.594;11.368;2022-12-15T03:34:19;5.50;99.90
44271;DHT22;29963;44.594;11.368;2022-12-15T03:36:44;5.40;99.90
44271;DHT22;29963;44.594;11.368;2022-12-15T03:39:10;5.40;99.90
44271;DHT22;29963;44.594;11.368;2022-12-15T03:41:36;5.40;99.90
44271;DHT22;29963;44.594;11.368;2022-12-15T03:44:01;5.40;99.90
44271;DHT22;29963;44.594;11.368;2022-12-15T03:46:27;5.30;99.90
44271;DHT22;29963;44.594;11.368;2022-12-15T03:48:53;5.30;99.90
44271;DHT22;29963;44.594;11.368;2022-12-15T03:51:19;5.30;99.90
44271;DHT22;29963;44.594;11.368;2022-12-15T03:53:45;5.30;99.90
44271;DHT22;29963;44.594;11.368;2022-12-15T03:56:15;5.30;99.90
44271;DHT22;29963;44.594;11.368;2022-12-15T03:58:41;5.20;99.90
44271;DHT22;29963;44.594;11.368;2022-12-15T04:01:26;5.20;99.90
44271;DHT22;29963;44.594;11.368;2022-12-15T04:03:53;5.20;99.90
44271;DHT22;29963;44.594;11.368;2022-12-15T04:06:18;5.20;99.90
44271;DHT22;29963;44.594;11.368;2022-12-15T04:08:44;5.20;99.90
44271;DHT22;29963;44.594;11.368;2022-12-15T04:11:10;5.20;99.90
44271;DHT22;29963;44.594;11.368;2022-12-15T04:13:35;5.20;99.90
44271;DHT22;29963;44.594;11.368;2022-12-15T04:16:01;5.20;99.90
44271;DHT22;29963;44.594;11.368;2022-12-15T04:18:27;5.10;99.90
44271;DHT22;29963;44.594;11.368;2022-12-15T04:20:53;5.20;99.90
44271;DHT22;29963;44.594;11.368;2022-12-15T04:23:19;5.10;99.90
44271;DHT22;29963;44.594;11.368;2022-12-15T04:25:45;5.10;99.90
44271;DHT22;29963;44.594;11.368;2022-12-15T04:28:29;5.10;99.90
44271;DHT22;29963;44.594;11.368;2022-12-15T04:31:16;5.10;99.90
44271;DHT22;29963;44.594;11.368;2022-12-15T04:34:04;5.10;99.90
44271;DHT22;29963;44.594;11.368;2022-12-15T04:36:51;5.20;99.90
44271;DHT22;29963;44.594;11.368;2022-12-15T04:39:38;5.20;99.90
44271;DHT22;29963;44.594;11.368;2022-12-15T04:42:23;5.30;99.90
44271;DHT22;29963;44.594;11.368;2022-12-15T04:45:08;5.30;99.90
44271;DHT22;29963;44.594;11.368;2022-12-15T04:47:53;5.30;99.90
44271;DHT22;29963;44.594;11.368;2022-12-15T04:50:37;5.30;99.90
44271;DHT22;29963;44.594;11.368;2022-12-15T04:53:21;5.40;99.90
44271;DHT22;29963;44.594;11.368;2022-12-15T04:56:13;5.40;99.90
44271;DHT22;29963;44.594;11.368;2022-12-15T04:58:58;5.40;99.90
44271;DHT22;29963;44.594;11.368;2022-12-15T05:01:42;5.40;99.90
44271;DHT22;29963;44.594;11.368;2022-12-15T05:04:27;5.40;99.90
44271;DHT22;29963;44.594;11.368;2022-12-15T05:07:11;5.40;99.90
44271;DHT22;29963;44.594;11.368;2022-12-15T05:09:55;5.40;99.90
44271;DHT22;29963;44.594;11.368;2022-12-15T05:12:39;5.40;99.90
44271;DHT22;29963;44.594;11.368;2022-12-15T05:15:23;5.40;99.90
44271;DHT22;29963;44.594;11.368;2022-12-15T05:18:07;5.40;99.90
44271;DHT22;29963;44.594;11.368;2022-12-15T05:20:54;5.40;99.90
44271;DHT22;29963;44.594;11.368;2022-12-15T05:23:40;5.40;99.90
44271;DHT22;29963;44.594;11.368;2022-12-15T05:26:24;5.40;99.90
44271;DHT22;29963;44.594;11.368;2022-12-15T05:29:08;5.30;99.90
44271;DHT22;29963;44.594;11.368;2022-12-15T05:31:52;5.30;99.90
44271;DHT22;29963;44.594;11.368;2022-12-15T05:34:25;5.30;99.90
44271;DHT22;29963;44.594;11.368;2022-12-15T05:36:52;5.30;99.90
44271;DHT22;29963;44.594;11.368;2022-12-15T05:39:18;5.30;99.90
44271;DHT22;29963;44.594;11.368;2022-12-15T05:41:44;5.20;99.90
44271;DHT22;29963;44.594;11.368;2022-12-15T05:44:10;5.20;99.90
44271;DHT22;29963;44.594;11.368;2022-12-15T05:46:36;5.20;99.90
44271;DHT22;29963;44.594;11.368;2022-12-15T05:49:06;5.20;99.90
44271;DHT22;29963;44.594;11.368;2022-12-15T05:51:33;5.20;99.90
44271;DHT22;29963;44.594;11.368;2022-12-15T05:53:59;5.10;99.90
44271;DHT22;29963;44.594;11.368;2022-12-15T05:56:26;5.00;99.90
44271;DHT22;29963;44.594;11.368;2022-12-15T05:58:53;5.00;99.90
44271;DHT22;29963;44.594;11.368;2022-12-15T06:01:19;5.10;99.90
44271;DHT22;29963;44.594;11.368;2022-12-15T06:03:45;5.10;99.90
44271;DHT22;29963;44.594;11.368;2022-12-15T06:06:11;5.10;99.90
44271;DHT22;29963;44.594;11.368;2022-12-15T06:08:39;5.10;99.90
44271;DHT22;29963;44.594;11.368;2022-12-15T06:11:05;5.10;99.90
44271;DHT22;29963;44.594;11.368;2022-12-15T06:13:32;5.20;99.90
44271;DHT22;29963;44.594;11.368;2022-12-15T06:16:03;5.20;99.90
44271;DHT22;29963;44.594;11.368;2022-12-15T06:18:32;5.20;99.90
44271;DHT22;29963;44.594;11.368;2022-12-15T06:21:07;5.20;99.90
44271;DHT22;29963;44.594;11.368;2022-12-15T06:23:33;5.30;99.90
44271;DHT22;29963;44.594;11.368;2022-12-15T06:26:08;5.30;99.90
44271;DHT22;29963;44.594;11.368;2022-12-15T06:28:34;5.30;99.90
44271;DHT22;29963;44.594;11.368;2022-12-15T06:31:05;5.30;99.90
44271;DHT22;29963;44.594;11.368;2022-12-15T06:33:31;5.30;99.90
44271;DHT22;29963;44.594;11.368;2022-12-15T06:36:01;5.30;99.90
44271;DHT22;29963;44.594;11.368;2022-12-15T06:38:28;5.30;99.90
44271;DHT22;29963;44.594;11.368;2022-12-15T06:41:04;5.40;99.90
44271;DHT22;29963;44.594;11.368;2022-12-15T06:43:31;5.40;99.90
44271;DHT22;29963;44.594;11.368;2022-12-15T06:45:58;5.50;99.90
44271;DHT22;29963;44.594;11.368;2022-12-15T06:48:24;5.50;99.90
44271;DHT22;29963;44.594;11.368;2022-12-15T06:50:51;5.50;99.90
44271;DHT22;29963;44.594;11.368;2022-12-15T06:53:18;5.50;99.90
44271;DHT22;29963;44.594;11.368;2022-12-15T06:55:45;5.50;99.90
44271;DHT22;29963;44.594;11.368;2022-12-15T06:58:11;5.50;99.90
44271;DHT22;29963;44.594;11.368;2022-12-15T07:00:38;5.60;99.90
44271;DHT22;29963;44.594;11.368;2022-12-15T07:03:16;5.60;99.90
44271;DHT22;29963;44.594;11.368;2022-12-15T07:05:42;5.60;99.90
44271;DHT22;29963;44.594;11.368;2022-12-15T07:08:10;5.70;99.90
44271;DHT22;29963;44.594;11.368;2022-12-15T07:10:40;5.70;99.90
44271;DHT22;29963;44.594;11.368;2022-12-15T07:13:10;5.70;99.90
44271;DHT22;29963;44.594;11.368;2022-12-15T07:15:36;5.70;99.90
44271;DHT22;29963;44.594;11.368;2022-12-15T07:18:02;5.70;99.90
44271;DHT22;29963;44.594;11.368;2022-12-15T07:20:31;5.70;99.90
44271;DHT22;29963;44.594;11.368;2022-12-15T07:22:57;5.80;99.90
44271;DHT22;29963;44.594;11.368;2022-12-15T07:25:23;5.80;99.90
44271;DHT22;29963;44.594;11.368;2022-12-15T07:27:49;5.80;99.90
44271;DHT22;29963;44.594;11.368;2022-12-15T07:30:15;5.80;99.90
44271;DHT22;29963;44.594;11.368;2022-12-15T07:32:42;5.90;99.90
44271;DHT22;29963;44.594;11.368;2022-12-15T07:35:09;5.80;99.90
44271;DHT22;29963;44.594;11.368;2022-12-15T07:37:35;5.90;99.90
44271;DHT22;29963;44.594;11.368;2022-12-15T07:40:02;5.90;99.90
44271;DHT22;29963;44.594;11.368;2022-12-15T07:42:29;5.90;99.90
44271;DHT22;29963;44.594;11.368;2022-12-15T07:44:54;5.90;99.90
44271;DHT22;29963;44.594;11.368;2022-12-15T07:47:20;6.00;99.90
44271;DHT22;29963;44.594;11.368;2022-12-15T07:49:46;6.00;99.90
44271;DHT22;29963;44.594;11.368;2022-12-15T07:52:12;6.00;99.90
44271;DHT22;29963;44.594;11.368;2022-12-15T07:54:38;6.10;99.90
44271;DHT22;29963;44.594;11.368;2022-12-15T07:57:04;6.10;99.90
44271;DHT22;29963;44.594;11.368;2022-12-15T07:59:32;6.10;99.90
44271;DHT22;29963;44.594;11.368;2022-12-15T08:01:58;6.10;99.90
44271;DHT22;29963;44.594;11.368;2022-12-15T08:04:26;6.10;99.90
44271;DHT22;29963;44.594;11.368;2022-12-15T08:06:53;6.10;99.90
44271;DHT22;29963;44.594;11.368;2022-12-15T08:09:18;6.10;99.90
44271;DHT22;29963;44.594;11.368;2022-12-15T08:11:44;6.10;99.90
44271;DHT22;29963;44.594;11.368;2022-12-15T08:14:10;6.20;99.90
44271;DHT22;29963;44.594;11.368;2022-12-15T08:16:35;6.20;99.90
44271;DHT22;29963;44.594;11.368;2022-12-15T08:19:03;6.20;99.90
44271;DHT22;29963;44.594;11.368;2022-12-15T08:21:30;6.20;99.90
44271;DHT22;29963;44.594;11.368;2022-12-15T08:23:56;6.20;99.90
44271;DHT22;29963;44.594;11.368;2022-12-15T08:26:22;6.30;99.90
44271;DHT22;29963;44.594;11.368;2022-12-15T08:28:48;6.30;99.90
44271;DHT22;29963;44.594;11.368;2022-12-15T08:31:16;6.30;99.90
44271;DHT22;29963;44.594;11.368;2022-12-15T08:33:42;6.40;99.90
44271;DHT22;29963;44.594;11.368;2022-12-15T08:36:10;6.40;99.90
44271;DHT22;29963;44.594;11.368;2022-12-15T08:38:37;6.40;99.90
44271;DHT22;29963;44.594;11.368;2022-12-15T08:41:35;6.40;99.90
44271;DHT22;29963;44.594;11.368;2022-12-15T08:44:01;6.50;99.90
44271;DHT22;29963;44.594;11.368;2022-12-15T08:46:32;6.60;99.90
44271;DHT22;29963;44.594;11.368;2022-12-15T08:48:59;6.60;99.90
44271;DHT22;29963;44.594;11.368;2022-12-15T08:51:27;6.60;99.90
44271;DHT22;29963;44.594;11.368;2022-12-15T08:53:57;6.60;99.90
44271;DHT22;29963;44.594;11.368;2022-12-15T08:56:24;6.70;99.90
44271;DHT22;29963;44.594;11.368;2022-12-15T08:58:56;6.70;99.90
44271;DHT22;29963;44.594;11.368;2022-12-15T09:01:23;6.80;99.90
44271;DHT22;29963;44.594;11.368;2022-12-15T09:03:50;6.90;99.90
44271;DHT22;29963;44.594;11.368;2022-12-15T09:06:21;6.90;99.90
44271;DHT22;29963;44.594;11.368;2022-12-15T09:08:47;7.00;99.90
44271;DHT22;29963;44.594;11.368;2022-12-15T09:11:13;7.00;99.90
44271;DHT22;29963;44.594;11.368;2022-12-15T09:13:39;7.00;99.90
44271;DHT22;29963;44.594;11.368;2022-12-15T09:16:13;7.00;99.90
44271;DHT22;29963;44.594;11.368;2022-12-15T09:18:41;6.90;99.90
44271;DHT22;29963;44.594;11.368;2022-12-15T09:21:08;6.90;99.90
44271;DHT22;29963;44.594;11.368;2022-12-15T09:23:34;6.90;99.90
44271;DHT22;29963;44.594;11.368;2022-12-15T09:26:01;6.90;99.90
44271;DHT22;29963;44.594;11.368;2022-12-15T09:28:28;7.00;99.90
44271;DHT22;29963;44.594;11.368;2022-12-15T09:31:01;7.00;99.90
44271;DHT22;29963;44.594;11.368;2022-12-15T09:33:26;7.10;99.90
44271;DHT22;29963;44.594;11.368;2022-12-15T09:35:52;7.10;99.90
44271;DHT22;29963;44.594;11.368;2022-12-15T09:38:18;7.10;99.90
44271;DHT22;29963;44.594;11.368;2022-12-15T09:40:44;7.10;99.90
44271;DHT22;29963;44.594;11.368;2022-12-15T09:43:15;7.10;99.90
44271;DHT22;29963;44.594;11.368;2022-12-15T09:45:46;7.10;99.90
44271;DHT22;29963;44.594;11.368;2022-12-15T09:48:20;7.20;99.90
44271;DHT22;29963;44.594;11.368;2022-12-15T09:50:50;7.20;99.90
44271;DHT22;29963;44.594;11.368;2022-12-15T09:53:17;7.10;99.90
44271;DHT22;29963;44.594;11.368;2022-12-15T09:55:48;7.10;99.90
44271;DHT22;29963;44.594;11.368;2022-12-15T10:01:22;7.10;99.90
44271;DHT22;29963;44.594;11.368;2022-12-15T10:06:16;7.10;99.90
44271;DHT22;29963;44.594;11.368;2022-12-15T10:19:06;7.20;99.90
44271;DHT22;29963;44.594;11.368;2022-12-15T10:21:33;7.20;99.90
44271;DHT22;29963;44.594;11.368;2022-12-15T10:24:18;7.20;99.90
44271;DHT22;29963;44.594;11.368;2022-12-15T10:27:10;7.20;99.90
44271;DHT22;29963;44.594;11.368;2022-12-15T10:29:44;7.30;99.90
44271;DHT22;29963;44.594;11.368;2022-12-15T10:34:56;7.30;99.90
44271;DHT22;29963;44.594;11.368;2022-12-15T10:37:22;7.30;99.90
44271;DHT22;29963;44.594;11.368;2022-12-15T10:39:49;7.30;99.90
44271;DHT22;29963;44.594;11.368;2022-12-15T10:42:23;7.30;99.90
44271;DHT22;29963;44.594;11.368;2022-12-15T10:44:52;7.40;99.90
44271;DHT22;29963;44.594;11.368;2022-12-15T10:47:20;7.40;99.90
44271;DHT22;29963;44.594;11.368;2022-12-15T10:49:46;7.40;99.90
44271;DHT22;29963;44.594;11.368;2022-12-15T10:52:35;7.40;99.90
44271;DHT22;29963;44.594;11.368;2022-12-15T10:55:06;7.50;99.90
44271;DHT22;29963;44.594;11.368;2022-12-15T10:58:00;7.50;99.90
44271;DHT22;29963;44.594;11.368;2022-12-15T11:00:31;7.50;99.90
44271;DHT22;29963;44.594;11.368;2022-12-15T11:02:57;7.60;99.90
44271;DHT22;29963;44.594;11.368;2022-12-15T11:05:24;7.60;99.90
44271;DHT22;29963;44.594;11.368;2022-12-15T11:07:55;7.60;99.90
44271;DHT22;29963;44.594;11.368;2022-12-15T11:10:49;7.60;99.90
44271;DHT22;29963;44.594;11.368;2022-12-15T11:13:33;7.70;99.90
44271;DHT22;29963;44.594;11.368;2022-12-15T11:16:16;7.70;99.90
44271;DHT22;29963;44.594;11.368;2022-12-15T11:18:57;7.70;99.90
44271;DHT22;29963;44.594;11.368;2022-12-15T11:21:31;7.60;99.90
44271;DHT22;29963;44.594;11.368;2022-12-15T11:24:24;7.60;99.90
44271;DHT22;29963;44.594;11.368;2022-12-15T11:26:55;7.60;99.90
44271;DHT22;29963;44.594;11.368;2022-12-15T11:30:25;7.60;99.90
44271;DHT22;29963;44.594;11.368;2022-12-15T11:32:23;7.50;99.90
44271;DHT22;29963;44.594;11.368;2022-12-15T11:34:50;7.50;99.90
44271;DHT22;29963;44.594;11.368;2022-12-15T11:37:24;7.50;99.90
44271;DHT22;29963;44.594;11.368;2022-12-15T11:40:16;7.50;99.90
44271;DHT22;29963;44.594;11.368;2022-12-15T11:48:36;7.50;99.90
44271;DHT22;29963;44.594;11.368;2022-12-15T11:56:17;7.50;99.90
44271;DHT22;29963;44.594;11.368;2022-12-15T12:04:29;7.40;99.90
44271;DHT22;29963;44.594;11.368;2022-12-15T12:12:29;7.30;99.90
44271;DHT22;29963;44.594;11.368;2022-12-15T12:17:45;7.30;99.90
44271;DHT22;29963;44.594;11.368;2022-12-15T12:20:18;7.30;99.90
44271;DHT22;29963;44.594;11.368;2022-12-15T12:23:03;7.30;99.90
44271;DHT22;29963;44.594;11.368;2022-12-15T12:25:33;7.30;99.90
44271;DHT22;29963;44.594;11.368;2022-12-15T12:28:12;7.30;99.90
44271;DHT22;29963;44.594;11.368;2022-12-15T12:30:44;7.20;99.90
44271;DHT22;29963;44.594;11.368;2022-12-15T12:38:11;7.20;99.90
44271;DHT22;29963;44.594;11.368;2022-12-15T12:43:34;7.20;99.90
44271;DHT22;29963;44.594;11.368;2022-12-15T12:46:05;7.20;99.90
44271;DHT22;29963;44.594;11.368;2022-12-15T12:48:39;7.20;99.90
44271;DHT22;29963;44.594;11.368;2022-12-15T12:51:23;7.20;99.90
44271;DHT22;29963;44.594;11.368;2022-12-15T12:53:50;7.30;99.90
44271;DHT22;29963;44.594;11.368;2022-12-15T12:58:59;7.30;99.90
44271;DHT22;29963;44.594;11.368;2022-12-15T13:01:34;7.30;99.90
44271;DHT22;29963;44.594;11.368;2022-12-15T13:04:11;7.30;99.90
44271;DHT22;29963;44.594;11.368;2022-12-15T13:14:28;7.20;99.90
44271;DHT22;29963;44.594;11.368;2022-12-15T13:20:27;7.20;99.90
44271;DHT22;29963;44.594;11.368;2022-12-15T13:22:51;7.20;99.90
44271;DHT22;29963;44.594;11.368;2022-12-15T13:25:33;7.20;99.90
44271;DHT22;29963;44.594;11.368;2022-12-15T13:28:15;7.10;99.90
44271;DHT22;29963;44.594;11.368;2022-12-15T13:39:06;7.10;99.90
44271;DHT22;29963;44.594;11.368;2022-12-15T13:47:22;7.00;99.90
44271;DHT22;29963;44.594;11.368;2022-12-15T13:50:01;7.00;99.90
44271;DHT22;29963;44.594;11.368;2022-12-15T13:55:20;7.00;99.90
44271;DHT22;29963;44.594;11.368;2022-12-15T14:00:37;7.00;99.90
44271;DHT22;29963;44.594;11.368;2022-12-15T14:03:10;7.00;99.90
44271;DHT22;29963;44.594;11.368;2022-12-15T14:05:37;7.00;99.90
44271;DHT22;29963;44.594;11.368;2022-12-15T14:08:09;7.00;99.90
44271;DHT22;29963;44.594;11.368;2022-12-15T14:13:22;6.90;99.90
44271;DHT22;29963;44.594;11.368;2022-12-15T14:16:19;6.90;99.90
44271;DHT22;29963;44.594;11.368;2022-12-15T14:19:11;7.00;99.90
44271;DHT22;29963;44.594;11.368;2022-12-15T14:21:37;7.00;99.90
44271;DHT22;29963;44.594;11.368;2022-12-15T14:24:46;6.90;99.90
44271;DHT22;29963;44.594;11.368;2022-12-15T14:27:05;6.90;99.90
44271;DHT22;29963;44.594;11.368;2022-12-15T14:29:30;6.90;99.90
44271;DHT22;29963;44.594;11.368;2022-12-15T14:31:57;6.90;99.90
44271;DHT22;29963;44.594;11.368;2022-12-15T14:36:48;6.90;99.90
44271;DHT22;29963;44.594;11.368;2022-12-15T14:41:59;6.90;99.90
44271;DHT22;29963;44.594;11.368;2022-12-15T14:44:37;6.90;99.90
44271;DHT22;29963;44.594;11.368;2022-12-15T14:47:06;6.90;99.90
44271;DHT22;29963;44.594;11.368;2022-12-15T14:49:38;6.90;99.90
44271;DHT22;29963;44.594;11.368;2022-12-15T14:52:05;6.90;99.90
44271;DHT22;29963;44.594;11.368;2022-12-15T14:54:37;6.90;99.90
44271;DHT22;29963;44.594;11.368;2022-12-15T14:57:12;6.90;99.90
44271;DHT22;29963;44.594;11.368;2022-12-15T14:59:42;6.90;99.90
44271;DHT22;29963;44.594;11.368;2022-12-15T15:02:24;6.90;99.90
44271;DHT22;29963;44.594;11.368;2022-12-15T15:05:02;6.90;99.90
44271;DHT22;29963;44.594;11.368;2022-12-15T15:07:30;7.00;99.90
44271;DHT22;29963;44.594;11.368;2022-12-15T15:09:56;6.90;99.90
44271;DHT22;29963;44.594;11.368;2022-12-15T15:12:32;6.90;99.90
44271;DHT22;29963;44.594;11.368;2022-12-15T15:15:05;7.00;99.90
44271;DHT22;29963;44.594;11.368;2022-12-15T15:17:48;7.00;99.90
44271;DHT22;29963;44.594;11.368;2022-12-15T15:20:21;7.00;99.90
44271;DHT22;29963;44.594;11.368;2022-12-15T15:28:27;7.00;99.90
44271;DHT22;29963;44.594;11.368;2022-12-15T15:31:00;7.00;99.90
44271;DHT22;29963;44.594;11.368;2022-12-15T15:33:32;7.00;99.90
44271;DHT22;29963;44.594;11.368;2022-12-15T15:35:59;7.00;99.90
44271;DHT22;29963;44.594;11.368;2022-12-15T15:38:32;7.00;99.90
44271;DHT22;29963;44.594;11.368;2022-12-15T15:41:13;7.00;99.90
44271;DHT22;29963;44.594;11.368;2022-12-15T15:43:40;7.00;99.90
44271;DHT22;29963;44.594;11.368;2022-12-15T15:46:11;7.00;99.90
44271;DHT22;29963;44.594;11.368;2022-12-15T15:48:51;6.90;99.90
44271;DHT22;29963;44.594;11.368;2022-12-15T15:51:18;6.90;99.90
44271;DHT22;29963;44.594;11.368;2022-12-15T15:53:45;6.80;99.90
44271;DHT22;29963;44.594;11.368;2022-12-15T15:56:14;6.70;99.90
44271;DHT22;29963;44.594;11.368;2022-12-15T15:58:40;6.60;99.90
44271;DHT22;29963;44.594;11.368;2022-12-15T16:01:08;6.50;99.90
44271;DHT22;29963;44.594;11.368;2022-12-15T16:03:34;6.40;99.90
44271;DHT22;29963;44.594;11.368;2022-12-15T16:06:02;6.30;99.90
44271;DHT22;29963;44.594;11.368;2022-12-15T16:08:34;6.30;99.90
44271;DHT22;29963;44.594;11.368;2022-12-15T16:11:01;6.40;99.90
44271;DHT22;29963;44.594;11.368;2022-12-15T16:13:27;6.30;99.90
44271;DHT22;29963;44.594;11.368;2022-12-15T16:15:53;6.30;99.90
44271;DHT22;29963;44.594;11.368;2022-12-15T16:18:19;6.20;99.90
44271;DHT22;29963;44.594;11.368;2022-12-15T16:20:48;6.20;99.90
44271;DHT22;29963;44.594;11.368;2022-12-15T16:23:15;6.30;99.90
44271;DHT22;29963;44.594;11.368;2022-12-15T16:25:44;6.30;99.90
44271;DHT22;29963;44.594;11.368;2022-12-15T16:28:16;6.30;99.90
44271;DHT22;29963;44.594;11.368;2022-12-15T16:30:42;6.30;99.90
44271;DHT22;29963;44.594;11.368;2022-12-15T16:33:09;6.20;99.90
44271;DHT22;29963;44.594;11.368;2022-12-15T16:35:36;6.20;99.90
44271;DHT22;29963;44.594;11.368;2022-12-15T16:38:05;6.20;99.90
44271;DHT22;29963;44.594;11.368;2022-12-15T16:40:35;6.20;99.90
44271;DHT22;29963;44.594;11.368;2022-12-15T16:43:02;6.20;99.90
44271;DHT22;29963;44.594;11.368;2022-12-15T16:45:31;6.10;99.90
44271;DHT22;29963;44.594;11.368;2022-12-15T16:47:57;6.10;99.90
44271;DHT22;29963;44.594;11.368;2022-12-15T16:50:31;6.10;99.90
44271;DHT22;29963;44.594;11.368;2022-12-15T16:52:58;6.10;99.90
44271;DHT22;29963;44.594;11.368;2022-12-15T16:55:26;6.10;99.90
44271;DHT22;29963;44.594;11.368;2022-12-15T16:57:54;6.10;99.90
44271;DHT22;29963;44.594;11.368;2022-12-15T17:00:24;6.10;99.90
44271;DHT22;29963;44.594;11.368;2022-12-15T17:02:51;6.00;99.90
44271;DHT22;29963;44.594;11.368;2022-12-15T17:05:17;6.00;99.90
44271;DHT22;29963;44.594;11.368;2022-12-15T17:07:48;5.90;99.90
44271;DHT22;29963;44.594;11.368;2022-12-15T17:10:19;5.90;99.90
44271;DHT22;29963;44.594;11.368;2022-12-15T17:12:45;5.90;99.90
44271;DHT22;29963;44.594;11.368;2022-12-15T17:15:23;5.90;99.90
44271;DHT22;29963;44.594;11.368;2022-12-15T17:17:49;5.80;99.90
44271;DHT22;29963;44.594;11.368;2022-12-15T17:20:24;5.70;99.90
44271;DHT22;29963;44.594;11.368;2022-12-15T17:23:03;5.70;99.90
44271;DHT22;29963;44.594;11.368;2022-12-15T17:25:39;5.60;99.90
44271;DHT22;29963;44.594;11.368;2022-12-15T17:28:12;5.60;99.90
44271;DHT22;29963;44.594;11.368;2022-12-15T17:30:38;5.60;99.90
44271;DHT22;29963;44.594;11.368;2022-12-15T17:33:31;5.60;99.90
44271;DHT22;29963;44.594;11.368;2022-12-15T17:36:08;5.60;99.90
44271;DHT22;29963;44.594;11.368;2022-12-15T17:38:36;5.60;99.90
44271;DHT22;29963;44.594;11.368;2022-12-15T17:41:01;5.70;99.90
44271;DHT22;29963;44.594;11.368;2022-12-15T17:43:27;5.70;99.90
44271;DHT22;29963;44.594;11.368;2022-12-15T17:45:53;5.70;99.90
44271;DHT22;29963;44.594;11.368;2022-12-15T17:48:22;5.70;99.90
44271;DHT22;29963;44.594;11.368;2022-12-15T17:50:49;5.80;99.90
44271;DHT22;29963;44.594;11.368;2022-12-15T17:53:19;5.80;99.90
44271;DHT22;29963;44.594;11.368;2022-12-15T17:55:45;5.80;99.90
44271;DHT22;29963;44.594;11.368;2022-12-15T18:00:42;5.70;99.90
44271;DHT22;29963;44.594;11.368;2022-12-15T18:03:08;5.70;99.90
44271;DHT22;29963;44.594;11.368;2022-12-15T18:05:34;5.70;99.90
44271;DHT22;29963;44.594;11.368;2022-12-15T18:08:02;5.70;99.90
44271;DHT22;29963;44.594;11.368;2022-12-15T18:10:36;5.70;99.90